createdAt,value
2023-03-06T00:00:37.984Z,9.711596
2023-03-06T00:01:37.944Z,9.711606
2023-03-06T00:02:37.990Z,9.711566
2023-03-06T00:03:38.102Z,9.711449
2023-03-06T00:04:38.439Z,9.711560
2023-03-06T00:05:37.963Z,9.711508
2023-03-06T00:06:37.895Z,9.711491
2023-03-06T00:07:37.889Z,9.711535
2023-03-06T00:08:37.884Z,9.711466
2023-03-06T00:09:37.917Z,9.711423
2023-03-06T00:10:37.888Z,9.711353
2023-03-06T00:11:38.477Z,9.711295
2023-03-06T00:12:37.894Z,9.711411
2023-03-06T00:13:37.901Z,9.711530
2023-03-06T00:14:37.954Z,9.711471
2023-03-06T00:15:37.937Z,9.711587
2023-03-06T00:16:38.066Z,9.711575
2023-03-06T00:17:37.844Z,9.711521
2023-03-06T00:18:38.452Z,9.711574
2023-03-06T00:19:37.806Z,9.711579
2023-03-06T00:20:38.487Z,9.711584
2023-03-06T00:21:37.878Z,9.711518
2023-03-06T00:22:37.883Z,9.711518
2023-03-06T00:27:38.358Z,9.711743
2023-03-06T00:28:38.369Z,9.711520
2023-03-06T00:29:38.350Z,9.711390
2023-03-06T00:30:38.362Z,9.711588
2023-03-06T00:31:38.343Z,9.711566
2023-03-06T00:32:38.415Z,9.711521
2023-03-06T00:33:38.307Z,9.711579
2023-03-06T00:34:38.311Z,9.711637
2023-03-06T00:35:38.321Z,9.711615
2023-03-06T00:36:38.285Z,9.711597
2023-03-06T00:37:38.282Z,9.711398
2023-03-06T00:38:38.280Z,9.711539
2023-03-06T00:39:38.312Z,9.711752
2023-03-06T00:40:38.262Z,9.711826
2023-03-06T00:41:38.256Z,9.711826
2023-03-06T00:42:38.269Z,9.711735
2023-03-06T00:43:38.252Z,9.711755
2023-03-06T00:44:38.231Z,9.711706
2023-03-06T00:45:38.227Z,9.711745
2023-03-06T00:46:38.211Z,9.711635
2023-03-06T00:47:38.197Z,9.711595
2023-03-06T00:48:38.187Z,9.711879
2023-03-06T00:49:38.208Z,9.711821
2023-03-06T00:50:38.270Z,9.711677
2023-03-06T00:51:39.037Z,9.711631
2023-03-06T00:52:39.130Z,9.711702
2023-03-06T00:53:38.201Z,9.711699
2023-03-06T00:54:39.143Z,9.711643
2023-03-06T00:55:38.200Z,9.711720
2023-03-06T00:56:38.121Z,9.711788
2023-03-06T00:57:38.128Z,9.711805
2023-03-06T00:58:38.118Z,9.711756
2023-03-06T00:59:38.093Z,9.711711
2023-03-06T01:00:38.106Z,9.711725
2023-03-06T01:01:38.094Z,9.711634
2023-03-06T01:02:38.078Z,9.711757
2023-03-06T01:03:38.075Z,9.711664
2023-03-06T01:04:38.056Z,9.711745
2023-03-06T01:05:38.042Z,9.711707
2023-03-06T01:06:38.043Z,9.711654
2023-03-06T01:07:38.033Z,9.711679
2023-03-06T01:08:38.028Z,9.711687
2023-03-06T01:09:38.027Z,9.711640
2023-03-06T01:10:38.012Z,9.711648
2023-03-06T01:11:38.002Z,9.711710
2023-03-06T01:12:38.004Z,9.711737
2023-03-06T01:13:37.983Z,9.711906
2023-03-06T01:14:37.976Z,9.711903
2023-03-06T01:15:37.971Z,9.712091
2023-03-06T01:16:37.994Z,9.712242
2023-03-06T01:17:37.958Z,9.712528
2023-03-06T01:18:37.953Z,9.711767
2023-03-06T01:19:37.945Z,9.711873
2023-03-06T01:20:37.945Z,9.712017
2023-03-06T01:21:37.945Z,9.712152
2023-03-06T01:22:37.943Z,9.712160
2023-03-06T01:23:37.916Z,9.712188
2023-03-06T01:24:38.670Z,9.712206
2023-03-06T01:25:37.889Z,9.712319
2023-03-06T01:26:37.877Z,9.712372
2023-03-06T01:27:37.877Z,9.712259
2023-03-06T01:28:38.580Z,9.711887
2023-03-06T01:29:37.867Z,9.711765
2023-03-06T01:30:37.853Z,9.711494
2023-03-06T01:31:37.882Z,9.711484
2023-03-06T01:32:37.898Z,9.711505
2023-03-06T01:33:37.816Z,9.711560
2023-03-06T01:34:37.827Z,9.711565
2023-03-06T01:35:37.840Z,9.711488
2023-03-06T01:36:37.812Z,9.711432
2023-03-06T01:37:37.811Z,9.711512
2023-03-06T01:38:37.820Z,9.711520
2023-03-06T01:39:37.777Z,9.711526
2023-03-06T01:40:37.773Z,9.711528
2023-03-06T01:41:37.761Z,9.711475
2023-03-06T01:42:37.781Z,9.711536
2023-03-06T01:43:37.758Z,9.711544
2023-03-06T01:44:38.646Z,9.711537
2023-03-06T01:45:37.794Z,9.711567
2023-03-06T01:46:37.738Z,9.711591
2023-03-06T01:47:37.725Z,9.711617
2023-03-06T01:48:37.722Z,9.711638
2023-03-06T01:49:37.722Z,9.711722
2023-03-06T01:50:37.708Z,9.711711
2023-03-06T01:51:37.743Z,9.711601
2023-03-06T01:52:37.707Z,9.711713
2023-03-06T01:53:37.676Z,9.711722
2023-03-06T01:54:37.660Z,9.711640
2023-03-06T01:55:37.666Z,9.711720
2023-03-06T01:56:37.669Z,9.711569
2023-03-06T01:57:37.651Z,9.711735
2023-03-06T01:58:37.636Z,9.711537
2023-03-06T01:59:37.691Z,9.711543
2023-03-06T02:00:37.618Z,9.711643
2023-03-06T02:01:38.615Z,9.711678
2023-03-06T02:02:37.665Z,9.711675
2023-03-06T02:03:37.612Z,9.711727
2023-03-06T02:04:37.648Z,9.711599
2023-03-06T02:05:37.606Z,9.711670
2023-03-06T02:06:37.568Z,9.711670
2023-03-06T02:07:37.578Z,9.711606
2023-03-06T02:08:37.564Z,9.711756
2023-03-06T02:09:37.554Z,9.711812
2023-03-06T02:10:37.692Z,9.711760
2023-03-06T02:11:37.592Z,9.711490
2023-03-06T02:12:38.190Z,9.711699
2023-03-06T02:13:37.517Z,9.711714
2023-03-06T02:14:37.514Z,9.711641
2023-03-06T02:15:37.499Z,9.711694
2023-03-06T02:16:37.539Z,9.711555
2023-03-06T02:17:37.493Z,9.711656
2023-03-06T02:18:37.473Z,9.711538
2023-03-06T02:19:38.176Z,9.711535
2023-03-06T02:20:37.465Z,9.711647
2023-03-06T02:21:37.451Z,9.711553
2023-03-06T02:22:37.445Z,9.711540
2023-03-06T02:23:37.447Z,9.711614
2023-03-06T02:24:37.444Z,9.711648
2023-03-06T02:25:37.430Z,9.711630
2023-03-06T02:26:37.421Z,9.711682
2023-03-06T02:27:37.415Z,9.711786
2023-03-06T02:28:37.387Z,9.711737
2023-03-06T02:29:38.401Z,9.711691
2023-03-06T02:30:37.479Z,9.711699
2023-03-06T02:31:37.389Z,9.711620
2023-03-06T02:32:37.466Z,9.711734
2023-03-06T02:33:37.376Z,9.711823
2023-03-06T02:34:37.390Z,9.712352
2023-03-06T02:35:37.376Z,9.713097
2023-03-06T02:36:37.365Z,9.712685
2023-03-06T02:37:37.336Z,9.712627
2023-03-06T02:38:37.333Z,9.712234
2023-03-06T02:39:37.313Z,9.711768
2023-03-06T02:40:37.314Z,9.711637
2023-03-06T02:41:37.348Z,9.711628
2023-03-06T02:42:37.297Z,9.711634
2023-03-06T02:43:37.282Z,9.711657
2023-03-06T02:44:37.307Z,9.711692
2023-03-06T02:45:37.295Z,9.711716
2023-03-06T02:46:37.278Z,9.711619
2023-03-06T02:47:37.254Z,9.711575
2023-03-06T02:48:37.252Z,9.711596
2023-03-06T02:49:38.186Z,9.711648
2023-03-06T02:50:37.236Z,9.711640
2023-03-06T02:51:37.224Z,9.711645
2023-03-06T02:52:37.211Z,9.711642
2023-03-06T02:53:37.215Z,9.711599
2023-03-06T02:54:37.214Z,9.711638
2023-03-06T02:55:38.186Z,9.711616
2023-03-06T02:56:37.180Z,9.711612
2023-03-06T02:57:37.212Z,9.711640
2023-03-06T02:58:37.184Z,9.711658
2023-03-06T02:59:37.165Z,9.711667
2023-03-06T03:00:37.161Z,9.711686
2023-03-06T03:01:37.179Z,9.711664
2023-03-06T03:02:37.145Z,9.711593
2023-03-06T03:03:37.123Z,9.711710
2023-03-06T03:04:37.159Z,9.711646
2023-03-06T03:05:37.116Z,9.711718
2023-03-06T03:06:37.111Z,9.711667
2023-03-06T03:07:37.115Z,9.711580
2023-03-06T03:08:37.098Z,9.711609
2023-03-06T03:09:37.134Z,9.711598
2023-03-06T03:10:37.082Z,9.711633
2023-03-06T03:11:37.068Z,9.711615
2023-03-06T03:12:37.060Z,9.711633
2023-03-06T03:13:37.048Z,9.711694
2023-03-06T03:14:37.057Z,9.711645
2023-03-06T03:15:37.042Z,9.711679
2023-03-06T03:16:39.092Z,9.711647
2023-03-06T03:17:38.037Z,9.711645
2023-03-06T03:18:37.015Z,9.711720
2023-03-06T03:19:37.024Z,9.711705
2023-03-06T03:20:37.007Z,9.711709
2023-03-06T03:21:36.992Z,9.711664
2023-03-06T03:22:36.980Z,9.711700
2023-03-06T03:23:36.977Z,9.711731
2023-03-06T03:24:36.989Z,9.711685
2023-03-06T03:25:36.968Z,9.711698
2023-03-06T03:26:36.963Z,9.711675
2023-03-06T03:27:36.953Z,9.711736
2023-03-06T03:28:36.994Z,9.711727
2023-03-06T03:29:36.935Z,9.711707
2023-03-06T03:30:36.918Z,9.711645
2023-03-06T03:31:36.921Z,9.711658
2023-03-06T03:32:36.931Z,9.711782
2023-03-06T03:33:36.923Z,9.711739
2023-03-06T03:34:36.881Z,9.711706
2023-03-06T03:35:36.986Z,9.711721
2023-03-06T03:36:36.866Z,9.711811
2023-03-06T03:37:36.862Z,9.711768
2023-03-06T03:38:36.877Z,9.711839
2023-03-06T03:39:37.698Z,9.711744
2023-03-06T03:40:36.848Z,9.711733
2023-03-06T03:41:37.626Z,9.711712
2023-03-06T03:42:36.839Z,9.711714
2023-03-06T03:43:36.819Z,9.711847
2023-03-06T03:44:36.812Z,9.711919
2023-03-06T03:45:36.817Z,9.711802
2023-03-06T03:46:36.846Z,9.711854
2023-03-06T03:47:36.787Z,9.711747
2023-03-06T03:48:36.784Z,9.711797
2023-03-06T03:49:36.804Z,9.711657
2023-03-06T03:50:36.763Z,9.711797
2023-03-06T03:51:36.766Z,9.711748
2023-03-06T03:52:36.737Z,9.711748
2023-03-06T03:53:38.710Z,9.711848
2023-03-06T03:54:36.725Z,9.711745
2023-03-06T03:55:36.732Z,9.711848
2023-03-06T03:56:36.712Z,9.711744
2023-03-06T03:57:36.721Z,9.711924
2023-03-06T03:58:36.703Z,9.711763
2023-03-06T03:59:36.705Z,9.711928
2023-03-06T04:00:36.683Z,9.711843
2023-03-06T04:01:39.139Z,9.711951
2023-03-06T04:02:36.659Z,9.712135
2023-03-06T04:03:36.667Z,9.711966
2023-03-06T04:04:37.649Z,9.711982
2023-03-06T04:05:36.635Z,9.712036
2023-03-06T04:06:36.624Z,9.712021
2023-03-06T04:07:37.627Z,9.711830
2023-03-06T04:08:36.618Z,9.711900
2023-03-06T04:09:36.611Z,9.712175
2023-03-06T04:10:36.612Z,9.711954
2023-03-06T04:11:36.594Z,9.712058
2023-03-06T04:12:36.598Z,9.712014
2023-03-06T04:13:36.573Z,9.712042
2023-03-06T04:14:36.566Z,9.712020
2023-03-06T04:15:36.566Z,9.712086
2023-03-06T04:16:36.592Z,9.711948
2023-03-06T04:17:37.182Z,9.711942
2023-03-06T04:18:36.546Z,9.711827
2023-03-06T04:19:36.532Z,9.711939
2023-03-06T04:20:36.540Z,9.712071
2023-03-06T04:21:36.515Z,9.711921
2023-03-06T04:22:36.513Z,9.712035
2023-03-06T04:23:36.502Z,9.711957
2023-03-06T04:24:37.195Z,9.712133
2023-03-06T04:25:36.492Z,9.711943
2023-03-06T04:26:37.128Z,9.711861
2023-03-06T04:27:36.473Z,9.711853
2023-03-06T04:28:36.472Z,9.711700
2023-03-06T04:29:36.488Z,9.711690
2023-03-06T04:30:36.455Z,9.711816
2023-03-06T04:31:36.514Z,9.711836
2023-03-06T04:32:36.458Z,9.711722
2023-03-06T04:33:36.434Z,9.711948
2023-03-06T04:34:36.423Z,9.711928
2023-03-06T04:35:36.489Z,9.712025
2023-03-06T04:36:36.439Z,9.711919
2023-03-06T04:37:36.399Z,9.711966
2023-03-06T04:38:36.420Z,9.711619
2023-03-06T04:39:36.382Z,9.711528
2023-03-06T04:40:36.388Z,9.711706
2023-03-06T04:41:36.403Z,9.711890
2023-03-06T04:42:36.359Z,9.711805
2023-03-06T04:43:36.360Z,9.711917
2023-03-06T04:44:36.328Z,9.711920
2023-03-06T04:45:36.412Z,9.711758
2023-03-06T04:46:36.334Z,9.711697
2023-03-06T04:47:36.309Z,9.711750
2023-03-06T04:48:36.308Z,9.711745
2023-03-06T04:49:36.306Z,9.711713
2023-03-06T04:50:36.299Z,9.711758
2023-03-06T04:51:36.305Z,9.711698
2023-03-06T04:52:36.298Z,9.711715
2023-03-06T04:53:36.261Z,9.711683
2023-03-06T04:54:36.258Z,9.711579
2023-03-06T04:55:36.264Z,9.711705
2023-03-06T04:56:36.251Z,9.711664
2023-03-06T04:57:36.245Z,9.711681
2023-03-06T04:58:36.237Z,9.711696
2023-03-06T04:59:38.844Z,9.711670
2023-03-06T05:00:36.215Z,9.711695
2023-03-06T05:01:36.219Z,9.711747
2023-03-06T05:02:36.216Z,9.711693
2023-03-06T05:03:36.183Z,9.711721
2023-03-06T05:04:36.188Z,9.711744
2023-03-06T05:05:36.169Z,9.711711
2023-03-06T05:06:36.163Z,9.711709
2023-03-06T05:07:36.151Z,9.711637
2023-03-06T05:08:36.146Z,9.711679
2023-03-06T05:09:37.190Z,9.711681
2023-03-06T05:10:36.118Z,9.711744
2023-03-06T05:11:36.121Z,9.711810
2023-03-06T05:12:36.115Z,9.711777
2023-03-06T05:13:36.105Z,9.711774
2023-03-06T05:14:36.099Z,9.711716
2023-03-06T05:15:36.086Z,9.711722
2023-03-06T05:16:36.203Z,9.711728
2023-03-06T05:17:36.082Z,9.711743
2023-03-06T05:18:36.071Z,9.711872
2023-03-06T05:19:36.056Z,9.711870
2023-03-06T05:20:36.055Z,9.712048
2023-03-06T05:21:36.035Z,9.711898
2023-03-06T05:22:36.039Z,9.711786
2023-03-06T05:23:36.024Z,9.711738
2023-03-06T05:24:36.013Z,9.711808
2023-03-06T05:25:36.013Z,9.711743
2023-03-06T05:26:36.005Z,9.711602
2023-03-06T05:27:36.005Z,9.711677
2023-03-06T05:28:36.007Z,9.711744
2023-03-06T05:29:35.972Z,9.711718
2023-03-06T05:30:36.966Z,9.711755
2023-03-06T05:31:36.018Z,9.711807
2023-03-06T05:32:36.124Z,9.711776
2023-03-06T05:33:35.945Z,9.711674
2023-03-06T05:34:35.942Z,9.711709
2023-03-06T05:35:35.952Z,9.711749
2023-03-06T05:36:35.919Z,9.711712
2023-03-06T05:37:35.942Z,9.712037
2023-03-06T05:38:35.918Z,9.711819
2023-03-06T05:39:35.896Z,9.712281
2023-03-06T05:40:35.887Z,9.712351
2023-03-06T05:41:35.916Z,9.712133
2023-03-06T05:42:35.873Z,9.711973
2023-03-06T05:43:35.902Z,9.711653
2023-03-06T05:44:35.878Z,9.711482
2023-03-06T05:45:35.890Z,9.711929
2023-03-06T05:46:35.848Z,9.711854
2023-03-06T05:47:35.839Z,9.711913
2023-03-06T05:48:35.849Z,9.711926
2023-03-06T05:49:35.822Z,9.711983
2023-03-06T05:50:35.824Z,9.711950
2023-03-06T05:51:35.820Z,9.711883
2023-03-06T05:52:35.803Z,9.711850
2023-03-06T05:53:35.783Z,9.711763
2023-03-06T05:54:35.786Z,9.711760
2023-03-06T05:55:35.775Z,9.711730
2023-03-06T05:56:35.777Z,9.711736
2023-03-06T05:57:35.751Z,9.711721
2023-03-06T05:58:35.751Z,9.711683
2023-03-06T05:59:36.296Z,9.711676
2023-03-06T06:00:35.733Z,9.711701
2023-03-06T06:01:35.733Z,9.711661
2023-03-06T06:02:35.759Z,9.711674
2023-03-06T06:03:35.739Z,9.711656
2023-03-06T06:04:35.700Z,9.711677
2023-03-06T06:05:35.696Z,9.711677
2023-03-06T06:06:35.818Z,9.711655
2023-03-06T06:07:35.828Z,9.711650
2023-03-06T06:08:35.682Z,9.711679
2023-03-06T06:09:35.648Z,9.711646
2023-03-06T06:10:36.098Z,9.711655
2023-03-06T06:11:35.645Z,9.711695
2023-03-06T06:12:35.655Z,9.711721
2023-03-06T06:13:35.637Z,9.711746
2023-03-06T06:14:35.650Z,9.711700
2023-03-06T06:15:35.621Z,9.711683
2023-03-06T06:16:35.613Z,9.711671
2023-03-06T06:17:35.608Z,9.711665
2023-03-06T06:18:35.592Z,9.711672
2023-03-06T06:19:35.659Z,9.711637
2023-03-06T06:20:36.134Z,9.711695
2023-03-06T06:21:35.554Z,9.711697
2023-03-06T06:22:35.645Z,9.711751
2023-03-06T06:23:35.590Z,9.711699
2023-03-06T06:24:35.550Z,9.711640
2023-03-06T06:25:35.535Z,9.711678
2023-03-06T06:26:37.144Z,9.711726
2023-03-06T06:27:35.524Z,9.711727
2023-03-06T06:28:35.505Z,9.711700
2023-03-06T06:29:35.501Z,9.711649
2023-03-06T06:30:35.633Z,9.711647
2023-03-06T06:31:35.608Z,9.711657
2023-03-06T06:32:35.518Z,9.711554
2023-03-06T06:33:35.545Z,9.711651
2023-03-06T06:34:35.475Z,9.711610
2023-03-06T06:35:35.627Z,9.711631
2023-03-06T06:36:37.136Z,9.711665
2023-03-06T06:37:35.646Z,9.711433
2023-03-06T06:38:35.611Z,9.711759
2023-03-06T06:39:35.421Z,9.711772
2023-03-06T06:40:35.415Z,9.711745
2023-03-06T06:41:54.989Z,9.711769
2023-03-06T06:42:40.097Z,9.711814
2023-03-06T06:43:36.398Z,9.711766
2023-03-06T06:44:35.439Z,9.711605
2023-03-06T06:45:35.505Z,9.711614
2023-03-06T06:47:37.488Z,9.711751
2023-03-06T06:48:35.359Z,9.711704
2023-03-06T06:49:35.408Z,9.711739
2023-03-06T06:50:35.416Z,9.711767
2023-03-06T06:51:35.327Z,9.711826
2023-03-06T06:52:35.428Z,9.711789
2023-03-06T06:53:35.320Z,9.711719
2023-03-06T06:54:35.408Z,9.711699
2023-03-06T06:55:35.324Z,9.711609
2023-03-06T06:56:35.317Z,9.711648
2023-03-06T06:57:36.164Z,9.711925
2023-03-06T06:58:35.273Z,9.711839
2023-03-06T06:59:35.262Z,9.711864
2023-03-06T07:00:36.245Z,9.711745
2023-03-06T07:01:35.323Z,9.711580
2023-03-06T07:02:35.242Z,9.711768
2023-03-06T07:03:35.276Z,9.711430
2023-03-06T07:04:35.351Z,9.711659
2023-03-06T07:05:35.239Z,9.711580
2023-03-06T07:06:36.196Z,9.711878
2023-03-06T07:07:35.226Z,9.711882
2023-03-06T07:08:36.594Z,9.711943
2023-03-06T07:09:35.182Z,9.711797
2023-03-06T07:10:35.180Z,9.711603
2023-03-06T07:11:35.180Z,9.711326
2023-03-06T07:12:35.387Z,9.711442
2023-03-06T07:13:35.148Z,9.711616
2023-03-06T07:14:35.135Z,9.711569
2023-03-06T07:15:35.159Z,9.711644
2023-03-06T07:16:35.165Z,9.711742
2023-03-06T07:17:35.126Z,9.711570
2023-03-06T07:18:35.148Z,9.711579
2023-03-06T07:19:35.129Z,9.711625
2023-03-06T07:20:35.094Z,9.711662
2023-03-06T07:21:35.098Z,9.711634
2023-03-06T07:22:49.965Z,9.711657
2023-03-06T07:23:37.099Z,9.711617
2023-03-06T07:24:35.080Z,9.711654
2023-03-06T07:25:35.174Z,9.711670
2023-03-06T07:26:35.110Z,9.711683
2023-03-06T07:27:35.211Z,9.711639
2023-03-06T07:28:49.799Z,9.711600
2023-03-06T07:29:37.029Z,9.711635
2023-03-06T07:30:35.062Z,9.711632
2023-03-06T07:31:35.887Z,9.711637
2023-03-06T07:32:35.108Z,9.711630
2023-03-06T07:33:35.104Z,9.711615
2023-03-06T07:34:34.994Z,9.711589
2023-03-06T07:35:35.170Z,9.711623
2023-03-06T07:36:34.997Z,9.711605
2023-03-06T07:37:34.964Z,9.711602
2023-03-06T07:38:35.042Z,9.711605
2023-03-06T07:39:35.654Z,9.711650
2023-03-06T07:40:35.133Z,9.711605
2023-03-06T07:41:34.968Z,9.711649
2023-03-06T07:42:35.767Z,9.711620
2023-03-06T07:43:35.005Z,9.711604
2023-03-06T07:44:34.980Z,9.711672
2023-03-06T07:45:34.938Z,9.711587
2023-03-06T07:46:34.967Z,9.711610
2023-03-06T07:47:34.935Z,9.711634
2023-03-06T07:48:34.999Z,9.711613
2023-03-06T07:49:34.970Z,9.711616
2023-03-06T07:50:37.636Z,9.711650
2023-03-06T07:51:34.930Z,9.711626
2023-03-06T07:52:34.919Z,9.711657
2023-03-06T07:53:35.031Z,9.711615
2023-03-06T07:54:34.945Z,9.711680
2023-03-06T07:55:34.842Z,9.711718
2023-03-06T07:56:34.863Z,9.711694
2023-03-06T07:57:34.833Z,9.711633
2023-03-06T07:58:34.934Z,9.711717
2023-03-06T07:59:34.821Z,9.711798
2023-03-06T08:00:34.885Z,9.711772
2023-03-06T08:01:36.695Z,9.711709
2023-03-06T08:02:35.661Z,9.711702
2023-03-06T08:03:36.847Z,9.711733
2023-03-06T08:04:35.617Z,9.711775
2023-03-06T08:05:34.811Z,9.711757
2023-03-06T08:06:34.741Z,9.711730
2023-03-06T08:07:35.757Z,9.711880
2023-03-06T08:08:34.725Z,9.711818
2023-03-06T08:09:35.363Z,9.711729
2023-03-06T08:10:36.121Z,9.711687
2023-03-06T08:11:34.703Z,9.711696
2023-03-06T08:12:35.309Z,9.711632
2023-03-06T08:13:34.677Z,9.711768
2023-03-06T08:14:34.730Z,9.711721
2023-03-06T08:15:34.761Z,9.711724
2023-03-06T08:16:34.750Z,9.711674
2023-03-06T08:17:34.684Z,9.711677
2023-03-06T08:18:38.191Z,9.711653
2023-03-06T08:19:36.154Z,9.711667
2023-03-06T08:20:35.217Z,9.711710
2023-03-06T08:21:34.622Z,9.711771
2023-03-06T08:22:35.149Z,9.711810
2023-03-06T08:23:34.616Z,9.711794
2023-03-06T08:24:34.692Z,9.711728
2023-03-06T08:25:34.646Z,9.711679
2023-03-06T08:26:34.645Z,9.711809
2023-03-06T08:27:34.634Z,9.711647
2023-03-06T08:28:34.570Z,9.711798
2023-03-06T08:29:36.153Z,9.711767
2023-03-06T08:30:34.723Z,9.711590
2023-03-06T08:31:34.684Z,9.711794
2023-03-06T08:32:34.631Z,9.711695
2023-03-06T08:33:34.561Z,9.711601
2023-03-06T08:34:36.110Z,9.711578
2023-03-06T08:35:34.561Z,9.711690
2023-03-06T08:36:34.533Z,9.711733
2023-03-06T08:37:34.530Z,9.711731
2023-03-06T08:38:34.509Z,9.711765
2023-03-06T08:39:35.222Z,9.711706
2023-03-06T08:40:34.652Z,9.711774
2023-03-06T08:41:34.523Z,9.711803
2023-03-06T08:42:35.118Z,9.711703
2023-03-06T08:43:35.178Z,9.711659
2023-03-06T08:44:35.675Z,9.711635
2023-03-06T08:45:35.279Z,9.711626
2023-03-06T08:46:34.478Z,9.711654
2023-03-06T08:47:35.259Z,9.711707
2023-03-06T08:48:34.419Z,9.711665
2023-03-06T08:49:34.412Z,9.711644
2023-03-06T08:50:34.398Z,9.711622
2023-03-06T08:51:34.380Z,9.711659
2023-03-06T08:52:34.393Z,9.711680
2023-03-06T08:53:43.103Z,9.711633
2023-03-06T08:54:36.374Z,9.711631
2023-03-06T08:55:34.346Z,9.711580
2023-03-06T08:56:34.488Z,9.711628
2023-03-06T08:57:35.269Z,9.711625
2023-03-06T08:58:38.224Z,9.711596
2023-03-06T08:59:38.315Z,9.711615
2023-03-06T09:00:36.252Z,9.711605
2023-03-06T09:01:35.246Z,9.711602
2023-03-06T09:02:35.150Z,9.711663
2023-03-06T09:03:34.302Z,9.711657
2023-03-06T09:04:34.287Z,9.711638
2023-03-06T09:05:34.396Z,9.711647
2023-03-06T09:06:35.166Z,9.711690
2023-03-06T09:07:34.260Z,9.711702
2023-03-06T09:08:34.313Z,9.711800
2023-03-06T09:09:34.288Z,9.711740
2023-03-06T09:10:34.265Z,9.711683
2023-03-06T09:11:34.346Z,9.711683
2023-03-06T09:12:43.889Z,9.711775
2023-03-06T09:13:36.248Z,9.711614
2023-03-06T09:14:34.202Z,9.711773
2023-03-06T09:15:34.204Z,9.711814
2023-03-06T09:16:34.231Z,9.711904
2023-03-06T09:17:34.204Z,9.711818
2023-03-06T09:18:34.239Z,9.712058
2023-03-06T09:19:34.181Z,9.711952
2023-03-06T09:20:34.154Z,9.711906
2023-03-06T09:21:34.141Z,9.711890
2023-03-06T09:22:34.135Z,9.711843
2023-03-06T09:23:34.135Z,9.711864
2023-03-06T09:24:34.148Z,9.711917
2023-03-06T09:25:34.320Z,9.711822
2023-03-06T09:26:45.484Z,9.712033
2023-03-06T09:27:36.673Z,9.711841
2023-03-06T09:28:34.667Z,9.711766
2023-03-06T09:29:34.739Z,9.711662
2023-03-06T09:30:35.299Z,9.711563
2023-03-06T09:31:35.095Z,9.711568
2023-03-06T09:32:34.165Z,9.711560
2023-03-06T09:33:34.067Z,9.711468
2023-03-06T09:34:34.041Z,9.711548
2023-03-06T09:35:34.073Z,9.711556
2023-03-06T09:36:42.899Z,9.711605
2023-03-06T09:37:36.021Z,9.711660
2023-03-06T09:38:34.014Z,9.711596
2023-03-06T09:39:34.668Z,9.711638
2023-03-06T09:40:34.016Z,9.711735
2023-03-06T09:41:34.664Z,9.711696
2023-03-06T09:42:35.274Z,9.711669
2023-03-06T09:43:34.008Z,9.711652
2023-03-06T09:44:33.982Z,9.711584
2023-03-06T09:45:33.959Z,9.711605
2023-03-06T09:46:33.969Z,9.711476
2023-03-06T09:47:33.939Z,9.711679
2023-03-06T09:48:34.684Z,9.711759
2023-03-06T09:49:34.703Z,9.711817
2023-03-06T09:50:33.938Z,9.711716
2023-03-06T09:51:34.692Z,9.711703
2023-03-06T09:52:34.009Z,9.711716
2023-03-06T09:55:42.568Z,9.711747
2023-03-06T09:56:41.898Z,9.711648
2023-03-06T09:57:41.872Z,9.711633
2023-03-06T09:58:41.861Z,9.711599
2023-03-06T09:59:41.856Z,9.711635
2023-03-06T10:00:41.848Z,9.711606
2023-03-06T10:01:43.069Z,9.711683
2023-03-06T10:02:41.933Z,9.711721
2023-03-06T10:03:42.669Z,9.711730
2023-03-06T10:04:42.276Z,9.711777
2023-03-06T10:05:41.807Z,9.711740
2023-03-06T10:06:41.786Z,9.711670
2023-03-06T10:07:41.876Z,9.711735
2023-03-06T10:08:41.776Z,9.711748
2023-03-06T10:09:41.837Z,9.711717
2023-03-06T10:10:41.747Z,9.711811
2023-03-06T10:11:41.756Z,9.711812
2023-03-06T10:12:41.745Z,9.711764
2023-03-06T10:13:41.732Z,9.711851
2023-03-06T10:14:41.729Z,9.711786
2023-03-06T10:15:41.787Z,9.711737
2023-03-06T10:16:41.749Z,9.711737
2023-03-06T10:17:41.715Z,9.711701
2023-03-06T10:18:41.694Z,9.711727
2023-03-06T10:19:42.208Z,9.711782
2023-03-06T10:20:41.735Z,9.711876
2023-03-06T10:21:41.762Z,9.711773
2023-03-06T10:23:01.238Z,9.711803
2023-03-06T10:23:43.660Z,9.711775
2023-03-06T10:24:41.637Z,9.711921
2023-03-06T10:25:42.209Z,9.711944
2023-03-06T10:26:41.751Z,9.711988
2023-03-06T10:27:43.647Z,9.711999
2023-03-06T10:28:41.630Z,9.711860
2023-03-06T10:29:43.674Z,9.711823
2023-03-06T10:30:41.601Z,9.712003
2023-03-06T10:31:41.607Z,9.712030
2023-03-06T10:32:49.571Z,9.711948
2023-03-06T10:33:43.582Z,9.712049
2023-03-06T10:34:41.563Z,9.711923
2023-03-06T10:35:42.179Z,9.712063
2023-03-06T10:36:41.568Z,9.711888
2023-03-06T10:37:41.572Z,9.711652
2023-03-06T10:38:41.532Z,9.711554
2023-03-06T10:39:41.521Z,9.711612
2023-03-06T10:40:41.532Z,9.711838
2023-03-06T10:41:41.521Z,9.712046
2023-03-06T10:42:41.496Z,9.712420
2023-03-06T10:43:42.509Z,9.712444
2023-03-06T10:44:41.512Z,9.712308
2023-03-06T10:45:48.967Z,9.712178
2023-03-06T10:46:43.634Z,9.712153
2023-03-06T10:47:41.533Z,9.712040
2023-03-06T10:48:42.338Z,9.712028
2023-03-06T10:49:42.529Z,9.711864
2023-03-06T10:50:42.131Z,9.711857
2023-03-06T10:51:41.462Z,9.711774
2023-03-06T10:52:41.437Z,9.711806
2023-03-06T10:53:42.171Z,9.711858
2023-03-06T10:54:41.415Z,9.711826
2023-03-06T10:55:41.433Z,9.711761
2023-03-06T10:56:41.404Z,9.711769
2023-03-06T10:57:42.218Z,9.711773
2023-03-06T10:58:41.397Z,9.711789
2023-03-06T10:59:41.398Z,9.711786
2023-03-06T11:00:41.464Z,9.711771
2023-03-06T11:01:41.459Z,9.711772
2023-03-06T11:02:41.732Z,9.711750
2023-03-06T11:03:42.218Z,9.711792
2023-03-06T11:04:41.468Z,9.711761
2023-03-06T11:05:41.390Z,9.711847
2023-03-06T11:06:41.329Z,9.711938
2023-03-06T11:07:41.312Z,9.711849
2023-03-06T11:08:41.318Z,9.711844
2023-03-06T11:09:41.329Z,9.711861
2023-03-06T11:10:41.292Z,9.711930
2023-03-06T11:11:41.296Z,9.711908
2023-03-06T11:12:43.107Z,9.712097
2023-03-06T11:13:41.293Z,9.712031
2023-03-06T11:14:41.319Z,9.711962
2023-03-06T11:15:42.295Z,9.712067
2023-03-06T11:16:42.093Z,9.712062
2023-03-06T11:17:41.403Z,9.712089
2023-03-06T11:18:41.312Z,9.711951
2023-03-06T11:19:41.210Z,9.711895
2023-03-06T11:20:51.092Z,9.712033
2023-03-06T11:21:43.204Z,9.711902
2023-03-06T11:22:41.376Z,9.712035
2023-03-06T11:23:41.193Z,9.712180
2023-03-06T11:24:41.216Z,9.712202
2023-03-06T11:25:41.167Z,9.712161
2023-03-06T11:26:41.180Z,9.712125
2023-03-06T11:27:41.163Z,9.711902
2023-03-06T11:28:41.132Z,9.711808
2023-03-06T11:29:41.734Z,9.711738
2023-03-06T11:30:41.142Z,9.711771
2023-03-06T11:31:42.626Z,9.711843
2023-03-06T11:32:41.388Z,9.711940
2023-03-06T11:33:41.146Z,9.711966
2023-03-06T11:34:41.098Z,9.711860
2023-03-06T11:35:41.102Z,9.711730
2023-03-06T11:36:41.092Z,9.711644
2023-03-06T11:37:41.132Z,9.711672
2023-03-06T11:38:41.060Z,9.711738
2023-03-06T11:39:41.076Z,9.711740
2023-03-06T11:40:41.618Z,9.711737
2023-03-06T11:41:41.104Z,9.711696
2023-03-06T11:42:41.021Z,9.711679
2023-03-06T11:43:41.031Z,9.711683
2023-03-06T11:44:41.134Z,9.711671
2023-03-06T11:45:41.023Z,9.711748
2023-03-06T11:46:41.042Z,9.711738
2023-03-06T11:47:41.002Z,9.711716
2023-03-06T11:48:40.988Z,9.711701
2023-03-06T11:49:41.003Z,9.711692
2023-03-06T11:50:40.981Z,9.711674
2023-03-06T11:51:40.954Z,9.711722